createdAt,value
2022-11-24T00:00:13.475Z,0.00
2022-11-24T00:01:13.392Z,0.00
2022-11-24T00:02:13.585Z,0.00
2022-11-24T00:03:13.490Z,0.00
2022-11-24T00:04:13.468Z,0.00
2022-11-24T00:05:13.352Z,0.00
2022-11-24T00:06:13.334Z,0.00
2022-11-24T00:07:13.412Z,0.00
2022-11-24T00:08:13.355Z,0.00
2022-11-24T00:09:13.304Z,0.00
2022-11-24T00:10:13.340Z,0.00
2022-11-24T00:11:13.289Z,0.00
2022-11-24T00:12:13.271Z,0.00
2022-11-24T00:13:13.261Z,0.00
2022-11-24T00:14:13.392Z,0.00
2022-11-24T00:15:13.235Z,0.00
2022-11-24T00:16:13.379Z,0.00
2022-11-24T00:17:13.329Z,0.00
2022-11-24T00:18:13.203Z,0.00
2022-11-24T00:19:18.370Z,0.00
2022-11-24T00:20:13.211Z,0.00
2022-11-24T00:21:13.218Z,0.00
2022-11-24T00:22:13.164Z,0.00
2022-11-24T00:23:13.155Z,0.00
2022-11-24T00:24:13.159Z,0.00
2022-11-24T00:25:13.142Z,0.00
2022-11-24T00:26:13.128Z,0.00
2022-11-24T00:27:13.133Z,0.00
2022-11-24T00:28:13.160Z,0.00
2022-11-24T00:29:13.095Z,0.00
2022-11-24T00:30:13.072Z,0.00
2022-11-24T00:31:16.998Z,0.00
2022-11-24T00:32:13.089Z,0.00
2022-11-24T00:33:13.035Z,0.00
2022-11-24T00:34:13.034Z,0.00
2022-11-24T00:35:13.040Z,0.00
2022-11-24T00:36:13.042Z,0.00
2022-11-24T00:37:13.060Z,0.00
2022-11-24T00:38:12.981Z,0.00
2022-11-24T00:39:13.008Z,0.00
2022-11-24T00:40:12.992Z,0.00
2022-11-24T00:41:13.008Z,0.00
2022-11-24T00:42:12.975Z,0.00
2022-11-24T00:43:12.982Z,0.00
2022-11-24T00:44:12.916Z,0.00
2022-11-24T00:45:14.242Z,0.00
2022-11-24T00:46:13.013Z,0.00
2022-11-24T00:47:13.053Z,0.00
2022-11-24T00:48:12.875Z,0.00
2022-11-24T00:49:12.908Z,0.00
2022-11-24T00:50:12.892Z,0.00
2022-11-24T00:51:12.845Z,0.00
2022-11-24T00:52:12.836Z,0.00
2022-11-24T00:53:12.895Z,0.00
2022-11-24T00:54:12.809Z,0.00
2022-11-24T00:55:12.836Z,0.00
2022-11-24T00:56:12.809Z,0.00
2022-11-24T00:57:12.826Z,0.00
2022-11-24T00:58:12.775Z,0.00
2022-11-24T00:59:12.766Z,0.00
2022-11-24T01:00:12.750Z,0.00
2022-11-24T01:01:12.834Z,0.00
2022-11-24T01:02:12.809Z,0.00
2022-11-24T01:03:12.731Z,0.00
2022-11-24T01:04:12.709Z,0.00
2022-11-24T01:05:12.711Z,0.00
2022-11-24T01:06:12.688Z,0.00
2022-11-24T01:07:12.746Z,0.00
2022-11-24T01:08:12.689Z,0.00
2022-11-24T01:09:12.694Z,0.00
2022-11-24T01:10:12.710Z,0.00
2022-11-24T01:11:12.625Z,0.00
2022-11-24T01:12:12.649Z,0.00
2022-11-24T01:13:12.652Z,0.00
2022-11-24T01:14:12.625Z,0.00
2022-11-24T01:15:12.580Z,0.00
2022-11-24T01:16:12.689Z,0.00
2022-11-24T01:17:12.628Z,0.00
2022-11-24T01:18:12.547Z,0.00
2022-11-24T01:19:12.555Z,0.00
2022-11-24T01:20:12.527Z,0.00
2022-11-24T01:21:12.570Z,0.00
2022-11-24T01:22:12.584Z,0.00
2022-11-24T01:23:12.504Z,0.00
2022-11-24T01:24:12.502Z,0.00
2022-11-24T01:25:12.562Z,0.00
2022-11-24T01:26:12.473Z,0.00
2022-11-24T01:27:12.489Z,0.00
2022-11-24T01:28:12.457Z,0.00
2022-11-24T01:29:12.434Z,0.00
2022-11-24T01:30:12.429Z,0.00
2022-11-24T01:31:12.592Z,0.00
2022-11-24T01:32:12.398Z,0.00
2022-11-24T01:33:12.416Z,0.00
2022-11-24T01:34:12.377Z,0.00
2022-11-24T01:35:12.408Z,0.00
2022-11-24T01:36:12.360Z,0.00
2022-11-24T01:37:12.398Z,0.00
2022-11-24T01:38:12.376Z,0.00
2022-11-24T01:39:12.353Z,0.00
2022-11-24T01:40:12.342Z,0.00
2022-11-24T01:41:12.305Z,0.00
2022-11-24T01:42:12.296Z,0.00
2022-11-24T01:43:12.317Z,0.00
2022-11-24T01:44:12.286Z,0.00
2022-11-24T01:45:12.269Z,0.00
2022-11-24T01:46:12.355Z,0.00
2022-11-24T01:47:12.240Z,0.00
2022-11-24T01:48:12.269Z,0.00
2022-11-24T01:49:12.215Z,0.00
2022-11-24T01:50:12.216Z,0.00
2022-11-24T01:51:12.212Z,0.00
2022-11-24T01:52:12.182Z,0.00
2022-11-24T01:53:12.188Z,0.00
2022-11-24T01:54:12.186Z,0.00
2022-11-24T01:55:12.151Z,0.00
2022-11-24T01:56:12.145Z,0.00
2022-11-24T01:57:12.157Z,0.00
2022-11-24T01:58:12.217Z,0.00
2022-11-24T01:59:12.109Z,0.00
2022-11-24T02:00:12.112Z,0.00
2022-11-24T02:01:12.171Z,0.00
2022-11-24T02:02:12.164Z,0.00
2022-11-24T02:03:12.058Z,0.00
2022-11-24T02:04:12.244Z,0.00
2022-11-24T02:05:12.051Z,0.00
2022-11-24T02:06:12.026Z,0.00
2022-11-24T02:07:12.058Z,0.00
2022-11-24T02:08:12.058Z,0.00
2022-11-24T02:09:11.997Z,0.00
2022-11-24T02:10:11.987Z,0.00
2022-11-24T02:11:11.994Z,0.00
2022-11-24T02:12:12.045Z,0.00
2022-11-24T02:13:12.003Z,0.00
2022-11-24T02:14:11.943Z,0.00
2022-11-24T02:15:11.938Z,0.00
2022-11-24T02:16:12.061Z,0.00
2022-11-24T02:17:11.936Z,0.00
2022-11-24T02:18:11.903Z,0.00
2022-11-24T02:19:11.892Z,0.00
2022-11-24T02:20:11.932Z,0.00
2022-11-24T02:21:11.879Z,0.00
2022-11-24T02:22:11.912Z,0.00
2022-11-24T02:23:11.856Z,0.00
2022-11-24T02:24:11.845Z,0.00
2022-11-24T02:25:11.946Z,0.00
2022-11-24T02:26:11.817Z,0.00
2022-11-24T02:27:11.862Z,0.00
2022-11-24T02:28:11.798Z,0.00
2022-11-24T02:29:11.833Z,0.00
2022-11-24T02:30:11.796Z,0.00
2022-11-24T02:31:11.859Z,0.00
2022-11-24T02:32:11.773Z,0.00
2022-11-24T02:33:11.795Z,0.00
2022-11-24T02:34:11.742Z,0.00
2022-11-24T02:35:11.754Z,0.00
2022-11-24T02:36:11.814Z,0.00
2022-11-24T02:37:11.698Z,0.00
2022-11-24T02:38:11.693Z,0.00
2022-11-24T02:39:11.681Z,0.00
2022-11-24T02:40:11.682Z,0.00
2022-11-24T02:41:11.684Z,0.00
2022-11-24T02:42:11.672Z,0.00
2022-11-24T02:43:11.659Z,0.00
2022-11-24T02:44:11.655Z,0.00
2022-11-24T02:45:11.621Z,0.00
2022-11-24T02:46:11.635Z,0.00
2022-11-24T02:47:11.625Z,0.00
2022-11-24T02:48:11.592Z,0.00
2022-11-24T02:49:11.575Z,0.00
2022-11-24T02:50:11.561Z,0.00
2022-11-24T02:51:11.546Z,0.00
2022-11-24T02:52:11.547Z,0.00
2022-11-24T02:53:11.553Z,0.00
2022-11-24T02:54:11.544Z,0.00
2022-11-24T02:55:11.506Z,0.00
2022-11-24T02:56:11.487Z,0.00
2022-11-24T02:57:11.517Z,0.00
2022-11-24T02:58:11.498Z,0.00
2022-11-24T02:59:11.480Z,0.00
2022-11-24T03:00:11.462Z,0.00
2022-11-24T03:01:11.481Z,0.00
2022-11-24T03:02:11.441Z,0.00
2022-11-24T03:03:11.530Z,0.00
2022-11-24T03:04:11.433Z,0.00
2022-11-24T03:05:11.415Z,0.00
2022-11-24T03:06:11.398Z,0.00
2022-11-24T03:07:11.529Z,0.00
2022-11-24T03:08:11.398Z,0.00
2022-11-24T03:09:11.351Z,0.00
2022-11-24T03:10:11.359Z,0.00
2022-11-24T03:11:11.352Z,0.00
2022-11-24T03:12:11.322Z,0.00
2022-11-24T03:13:11.318Z,0.00
2022-11-24T03:14:11.475Z,0.00
2022-11-24T03:15:11.292Z,0.00
2022-11-24T03:16:11.394Z,0.00
2022-11-24T03:17:11.294Z,0.00
2022-11-24T03:18:11.258Z,0.00
2022-11-24T03:19:11.255Z,0.00
2022-11-24T03:20:11.355Z,0.00
2022-11-24T03:21:11.232Z,0.00
2022-11-24T03:22:11.238Z,0.00
2022-11-24T03:23:11.200Z,0.00
2022-11-24T03:24:11.305Z,0.00
2022-11-24T03:25:11.192Z,0.00
2022-11-24T03:26:11.206Z,0.00
2022-11-24T03:27:11.161Z,0.00
2022-11-24T03:28:11.266Z,0.00
2022-11-24T03:29:11.176Z,0.00
2022-11-24T03:30:11.121Z,0.00
2022-11-24T03:31:11.243Z,0.00
2022-11-24T03:32:11.105Z,0.00
2022-11-24T03:33:11.102Z,0.00
2022-11-24T03:34:11.129Z,0.00
2022-11-24T03:35:11.105Z,0.00
2022-11-24T03:36:11.079Z,0.00
2022-11-24T03:37:11.059Z,0.00
2022-11-24T03:38:11.077Z,0.00
2022-11-24T03:39:11.041Z,0.00
2022-11-24T03:40:11.043Z,0.00
2022-11-24T03:41:11.022Z,0.00
2022-11-24T03:42:10.994Z,0.00
2022-11-24T03:43:11.095Z,0.00
2022-11-24T03:44:11.010Z,0.00
2022-11-24T03:45:37.962Z,0.00
2022-11-24T03:46:12.049Z,0.00
2022-11-24T03:47:10.942Z,0.00
2022-11-24T03:48:10.985Z,0.00
2022-11-24T03:49:10.924Z,0.00
2022-11-24T03:50:10.912Z,0.00
2022-11-24T03:51:10.920Z,0.00
2022-11-24T03:52:10.907Z,0.00
2022-11-24T03:53:10.927Z,0.00
2022-11-24T03:54:10.928Z,0.00
2022-11-24T03:55:10.882Z,0.00
2022-11-24T03:56:10.888Z,0.00
2022-11-24T03:57:10.850Z,0.00
2022-11-24T03:58:10.917Z,0.00
2022-11-24T03:59:10.812Z,0.00
2022-11-24T04:00:10.808Z,0.00
2022-11-24T04:01:10.825Z,0.00
2022-11-24T04:02:10.878Z,0.00
2022-11-24T04:03:10.812Z,0.00
2022-11-24T04:04:10.756Z,0.00
2022-11-24T04:05:10.747Z,0.00
2022-11-24T04:06:10.850Z,0.00
2022-11-24T04:07:10.760Z,0.00
2022-11-24T04:08:10.751Z,0.00
2022-11-24T04:09:10.722Z,0.00
2022-11-24T04:10:10.689Z,0.00
2022-11-24T04:11:10.691Z,0.00
2022-11-24T04:12:10.698Z,0.00
2022-11-24T04:13:10.690Z,0.00
2022-11-24T04:14:13.806Z,0.00
2022-11-24T04:15:10.649Z,0.00
2022-11-24T04:16:10.691Z,0.00
2022-11-24T04:17:10.679Z,0.00
2022-11-24T04:18:10.633Z,0.00
2022-11-24T04:19:10.595Z,0.00
2022-11-24T04:20:10.593Z,0.00
2022-11-24T04:21:10.568Z,0.00
2022-11-24T04:22:10.578Z,0.00
2022-11-24T04:23:10.583Z,0.00
2022-11-24T04:24:10.602Z,0.00
2022-11-24T04:25:10.528Z,0.00
2022-11-24T04:26:10.517Z,0.00
2022-11-24T04:27:10.503Z,0.00
2022-11-24T04:28:10.533Z,0.00
2022-11-24T04:29:10.480Z,0.00
2022-11-24T04:30:10.507Z,0.00
2022-11-24T04:31:10.520Z,0.00
2022-11-24T04:32:10.469Z,0.00
2022-11-24T04:33:10.476Z,0.00
2022-11-24T04:34:10.430Z,0.00
2022-11-24T04:35:10.442Z,0.00
2022-11-24T04:36:10.409Z,0.00
2022-11-24T04:37:10.418Z,0.00
2022-11-24T04:38:10.418Z,0.00
2022-11-24T04:39:24.846Z,0.00
2022-11-24T04:40:10.386Z,0.00
2022-11-24T04:41:10.370Z,0.00
2022-11-24T04:42:10.341Z,0.00
2022-11-24T04:43:10.351Z,0.00
2022-11-24T04:44:10.328Z,0.00
2022-11-24T04:45:10.307Z,0.00
2022-11-24T04:46:10.393Z,0.00
2022-11-24T04:47:10.319Z,0.00
2022-11-24T04:48:10.277Z,0.00
2022-11-24T04:49:10.261Z,0.00
2022-11-24T04:50:10.278Z,0.00
2022-11-24T04:51:10.247Z,0.00
2022-11-24T04:52:10.228Z,0.00
2022-11-24T04:53:10.263Z,0.00
2022-11-24T04:54:10.228Z,0.00
2022-11-24T04:55:10.208Z,0.00
2022-11-24T04:56:10.207Z,0.00
2022-11-24T04:57:10.179Z,0.00
2022-11-24T04:58:10.223Z,0.00
2022-11-24T04:59:10.151Z,0.00
2022-11-24T05:00:10.143Z,0.00
2022-11-24T05:01:10.170Z,0.00
2022-11-24T05:02:10.184Z,0.00
2022-11-24T05:03:10.112Z,0.00
2022-11-24T05:04:10.186Z,0.00
2022-11-24T05:05:10.093Z,0.00
2022-11-24T05:06:10.109Z,0.00
2022-11-24T05:07:13.484Z,0.00
2022-11-24T05:08:11.212Z,0.00
2022-11-24T05:09:10.087Z,0.00
2022-11-24T05:10:10.059Z,0.00
2022-11-24T05:11:10.036Z,0.00
2022-11-24T05:12:10.036Z,0.00
2022-11-24T05:13:10.008Z,0.00
2022-11-24T05:14:10.029Z,0.00
2022-11-24T05:15:10.023Z,0.00
2022-11-24T05:16:10.074Z,0.00
2022-11-24T05:17:09.986Z,0.00
2022-11-24T05:18:09.954Z,0.00
2022-11-24T05:19:09.962Z,0.00
2022-11-24T05:20:09.922Z,0.00
2022-11-24T05:21:09.918Z,0.00
2022-11-24T05:22:09.915Z,0.00
2022-11-24T05:23:09.945Z,0.00
2022-11-24T05:24:09.924Z,0.00
2022-11-24T05:25:09.895Z,0.00
2022-11-24T05:26:09.864Z,0.00
2022-11-24T05:27:09.866Z,0.00
2022-11-24T05:28:09.887Z,0.00
2022-11-24T05:29:09.834Z,0.00
2022-11-24T05:30:09.862Z,0.00
2022-11-24T05:31:09.989Z,0.00
2022-11-24T05:32:09.816Z,0.00
2022-11-24T05:33:09.814Z,0.00
2022-11-24T05:34:09.815Z,0.00
2022-11-24T05:35:09.792Z,0.00
2022-11-24T05:36:09.753Z,0.00
2022-11-24T05:37:09.827Z,0.00
2022-11-24T05:38:09.727Z,0.00
2022-11-24T05:39:09.726Z,0.00
2022-11-24T05:40:09.711Z,0.00
2022-11-24T05:41:09.695Z,0.00
2022-11-24T05:42:09.692Z,0.00
2022-11-24T05:43:09.746Z,0.00
2022-11-24T05:44:09.683Z,0.00
2022-11-24T05:45:09.662Z,0.00
2022-11-24T05:46:09.640Z,0.00
2022-11-24T05:47:09.633Z,0.00
2022-11-24T05:48:09.656Z,0.00
2022-11-24T05:49:09.647Z,0.00
2022-11-24T05:50:09.600Z,0.00
2022-11-24T05:51:09.688Z,0.00
2022-11-24T05:52:09.600Z,0.00
2022-11-24T05:53:09.620Z,0.00
2022-11-24T05:54:09.584Z,0.00
2022-11-24T05:55:09.545Z,0.00
2022-11-24T05:56:09.560Z,0.00
2022-11-24T05:57:09.556Z,0.00
2022-11-24T05:58:09.562Z,0.00
2022-11-24T05:59:10.105Z,0.00
2022-11-24T06:00:09.549Z,0.00
2022-11-24T06:01:09.514Z,0.00
2022-11-24T06:02:09.567Z,0.00
2022-11-24T06:03:09.629Z,0.00
2022-11-24T06:04:09.448Z,0.00
2022-11-24T06:05:09.460Z,0.00
2022-11-24T06:06:09.522Z,0.00
2022-11-24T06:07:09.482Z,0.00
2022-11-24T06:08:09.405Z,0.00
2022-11-24T06:09:09.394Z,0.00
2022-11-24T06:10:09.382Z,0.00
2022-11-24T06:11:09.482Z,0.00
2022-11-24T06:12:09.360Z,0.00
2022-11-24T06:13:09.429Z,0.00
2022-11-24T06:14:11.335Z,0.00
2022-11-24T06:15:09.326Z,0.00
2022-11-24T06:16:09.503Z,0.00
2022-11-24T06:17:09.322Z,0.00
2022-11-24T06:18:09.293Z,0.00
2022-11-24T06:19:09.290Z,0.00
2022-11-24T06:20:09.472Z,0.00
2022-11-24T06:21:11.150Z,0.00
2022-11-24T06:22:09.307Z,0.00
2022-11-24T06:23:09.246Z,0.00
2022-11-24T06:24:09.267Z,0.00
2022-11-24T06:25:09.223Z,0.00
2022-11-24T06:26:09.218Z,0.00
2022-11-24T06:27:09.240Z,4.00
2022-11-24T06:28:09.241Z,4.00
2022-11-24T06:29:09.313Z,4.00
2022-11-24T06:30:09.167Z,0.00
2022-11-24T06:31:09.211Z,0.00
2022-11-24T06:32:09.240Z,0.00
2022-11-24T06:33:09.127Z,0.00
2022-11-24T06:34:09.144Z,4.00
2022-11-24T06:35:09.103Z,4.00
2022-11-24T06:36:09.246Z,4.00
2022-11-24T06:37:09.085Z,4.00
2022-11-24T06:38:09.109Z,4.00
2022-11-24T06:39:09.061Z,4.00
2022-11-24T06:40:09.067Z,4.00
2022-11-24T06:41:09.093Z,4.00
2022-11-24T06:42:09.070Z,8.00
2022-11-24T06:43:09.014Z,4.00
2022-11-24T06:44:09.003Z,8.00
2022-11-24T06:45:09.800Z,8.00
2022-11-24T06:46:09.142Z,8.00
2022-11-24T06:47:09.064Z,12.00
2022-11-24T06:48:08.986Z,8.00
2022-11-24T06:49:08.993Z,12.00
2022-11-24T06:50:08.938Z,12.00
2022-11-24T06:51:08.991Z,12.00
2022-11-24T06:52:08.942Z,16.00
2022-11-24T06:53:08.903Z,12.00
2022-11-24T06:54:08.961Z,16.00
2022-11-24T06:55:08.910Z,16.00
2022-11-24T06:56:15.169Z,16.00
2022-11-24T06:57:08.868Z,16.00
2022-11-24T06:58:08.908Z,16.00
2022-11-24T06:59:08.889Z,16.00
2022-11-24T07:00:08.865Z,16.00
2022-11-24T07:01:08.882Z,16.00
2022-11-24T07:02:08.812Z,16.00
2022-11-24T07:03:08.846Z,16.00
2022-11-24T07:04:08.839Z,20.00
2022-11-24T07:05:08.787Z,16.00
2022-11-24T07:06:08.820Z,20.00
2022-11-24T07:07:08.820Z,20.00
2022-11-24T07:08:12.040Z,20.00
2022-11-24T07:09:08.758Z,20.00
2022-11-24T07:10:08.722Z,20.00
2022-11-24T07:11:08.729Z,24.00
2022-11-24T07:12:08.759Z,28.00
2022-11-24T07:13:08.683Z,28.00
2022-11-24T07:14:08.675Z,28.00
2022-11-24T07:15:08.670Z,28.00
2022-11-24T07:16:08.756Z,32.00
2022-11-24T07:17:08.635Z,36.00
2022-11-24T07:18:08.621Z,32.00
2022-11-24T07:19:08.655Z,36.00
2022-11-24T07:20:08.645Z,32.00
2022-11-24T07:21:08.590Z,36.00
2022-11-24T07:22:08.616Z,36.00
2022-11-24T07:23:08.567Z,32.00
2022-11-24T07:24:08.559Z,36.00
2022-11-24T07:25:08.565Z,36.00
2022-11-24T07:26:08.569Z,40.00
2022-11-24T07:27:08.543Z,40.00
2022-11-24T07:28:08.510Z,40.00
2022-11-24T07:29:08.501Z,40.00
2022-11-24T07:30:08.516Z,44.00
2022-11-24T07:31:08.480Z,48.00
2022-11-24T07:32:08.570Z,48.00
2022-11-24T07:33:08.485Z,48.00
2022-11-24T07:34:08.738Z,52.00
2022-11-24T07:35:08.450Z,60.00
2022-11-24T07:36:08.441Z,64.00
2022-11-24T07:37:08.449Z,68.00
2022-11-24T07:38:08.438Z,68.00
2022-11-24T07:39:08.385Z,76.00
2022-11-24T07:40:08.432Z,76.00
2022-11-24T07:41:08.434Z,84.00
2022-11-24T07:42:08.396Z,92.00
2022-11-24T07:43:08.358Z,96.00
2022-11-24T07:44:08.399Z,100.00
2022-11-24T07:45:08.321Z,100.00
2022-11-24T07:46:08.434Z,104.00
2022-11-24T07:47:08.383Z,112.00
2022-11-24T07:48:08.351Z,116.00
2022-11-24T07:49:08.290Z,120.00
2022-11-24T07:50:08.302Z,124.00
2022-11-24T07:51:08.252Z,128.00
2022-11-24T07:52:08.274Z,132.00
2022-11-24T07:53:08.231Z,136.00
2022-11-24T07:54:08.241Z,128.00
2022-11-24T07:55:08.427Z,124.00
2022-11-24T07:56:08.246Z,120.00
2022-11-24T07:57:08.191Z,120.00
2022-11-24T07:58:08.187Z,120.00
2022-11-24T07:59:08.211Z,128.00
2022-11-24T08:00:08.177Z,132.00
2022-11-24T08:01:08.216Z,148.00
2022-11-24T08:02:08.206Z,164.00
2022-11-24T08:03:08.120Z,176.00
2022-11-24T08:04:08.220Z,180.00
2022-11-24T08:05:08.119Z,184.00
2022-11-24T08:06:23.986Z,184.00
2022-11-24T08:07:09.203Z,184.00
2022-11-24T08:08:08.086Z,184.00
2022-11-24T08:09:08.088Z,184.00
2022-11-24T08:10:08.040Z,188.00
2022-11-24T08:11:08.040Z,188.00
2022-11-24T08:12:08.067Z,184.00
2022-11-24T08:13:08.049Z,180.00
2022-11-24T08:14:07.993Z,180.00
2022-11-24T08:15:11.149Z,176.00
2022-11-24T08:16:07.991Z,176.00
2022-11-24T08:17:08.032Z,176.00
2022-11-24T08:18:07.972Z,172.00
2022-11-24T08:19:07.975Z,168.00
2022-11-24T08:20:07.930Z,168.00
2022-11-24T08:21:07.936Z,160.00
2022-11-24T08:22:08.144Z,152.00
2022-11-24T08:23:08.053Z,136.00
2022-11-24T08:24:07.939Z,136.00
2022-11-24T08:25:07.876Z,144.00
2022-11-24T08:26:07.865Z,152.00
2022-11-24T08:27:07.851Z,164.00
2022-11-24T08:28:07.846Z,180.00
2022-11-24T08:29:08.015Z,192.00
2022-11-24T08:30:07.869Z,204.00
2022-11-24T08:31:07.828Z,216.00
2022-11-24T08:32:07.916Z,224.00
2022-11-24T08:33:07.824Z,228.00
2022-11-24T08:34:07.803Z,236.00
2022-11-24T08:35:13.938Z,240.00
2022-11-24T08:36:08.749Z,244.00
2022-11-24T08:37:07.740Z,240.00
2022-11-24T08:38:07.730Z,240.00
2022-11-24T08:39:07.720Z,232.00
2022-11-24T08:40:07.749Z,228.00
2022-11-24T08:41:07.709Z,216.00
2022-11-24T08:42:07.682Z,208.00
2022-11-24T08:43:07.732Z,204.00
2022-11-24T08:44:07.692Z,196.00
2022-11-24T08:45:19.991Z,188.00
2022-11-24T08:46:07.753Z,184.00
2022-11-24T08:47:07.651Z,180.00
2022-11-24T08:48:07.647Z,184.00
2022-11-24T08:49:07.617Z,184.00
2022-11-24T08:50:07.736Z,188.00
2022-11-24T08:51:07.593Z,196.00
2022-11-24T08:52:07.604Z,204.00
2022-11-24T08:53:07.601Z,216.00
2022-11-24T08:54:07.553Z,224.00
2022-11-24T08:55:07.554Z,236.00
2022-11-24T08:56:07.553Z,252.00
2022-11-24T08:57:07.562Z,256.00
2022-11-24T08:58:07.509Z,272.00
2022-11-24T08:59:07.607Z,284.00
2022-11-24T09:00:07.592Z,288.00
2022-11-24T09:01:07.522Z,296.00
2022-11-24T09:02:07.470Z,304.00
2022-11-24T09:03:07.467Z,308.00
2022-11-24T09:04:07.490Z,304.00
2022-11-24T09:05:28.795Z,316.00
2022-11-24T09:06:07.434Z,280.00
2022-11-24T09:07:07.477Z,264.00
2022-11-24T09:08:07.404Z,248.00
2022-11-24T09:09:07.423Z,240.00
2022-11-24T09:10:07.394Z,232.00
2022-11-24T09:11:07.364Z,232.00
2022-11-24T09:12:11.344Z,240.00
2022-11-24T09:13:07.826Z,244.00
2022-11-24T09:14:07.348Z,244.00
2022-11-24T09:15:07.339Z,236.00
2022-11-24T09:16:07.390Z,220.00
2022-11-24T09:17:07.364Z,212.00
2022-11-24T09:18:07.289Z,212.00
2022-11-24T09:19:07.306Z,212.00
2022-11-24T09:20:07.285Z,216.00
2022-11-24T09:21:07.300Z,220.00
2022-11-24T09:22:07.274Z,232.00
2022-11-24T09:23:07.248Z,248.00
2022-11-24T09:24:07.241Z,260.00
2022-11-24T09:25:07.230Z,268.00
2022-11-24T09:26:07.236Z,272.00
2022-11-24T09:27:07.235Z,264.00
2022-11-24T09:28:07.235Z,244.00
2022-11-24T09:29:07.180Z,224.00
2022-11-24T09:30:07.232Z,208.00
2022-11-24T09:31:07.209Z,196.00
2022-11-24T09:32:07.295Z,184.00
2022-11-24T09:33:07.152Z,180.00
2022-11-24T09:34:07.172Z,172.00
2022-11-24T09:35:07.101Z,160.00
2022-11-24T09:36:07.115Z,148.00
2022-11-24T09:37:07.106Z,140.00
2022-11-24T09:38:07.080Z,132.00
2022-11-24T09:39:07.322Z,124.00
2022-11-24T09:40:07.082Z,124.00
2022-11-24T09:41:07.046Z,124.00
2022-11-24T09:42:07.090Z,128.00
2022-11-24T09:43:07.016Z,136.00
2022-11-24T09:44:07.053Z,140.00
2022-11-24T09:45:07.006Z,148.00
2022-11-24T09:46:07.064Z,156.00
2022-11-24T09:47:07.005Z,160.00
2022-11-24T09:48:06.979Z,160.00
2022-11-24T09:49:06.981Z,164.00
2022-11-24T09:50:06.996Z,164.00
2022-11-24T09:51:06.945Z,168.00
2022-11-24T09:52:06.916Z,172.00
2022-11-24T09:53:06.912Z,184.00
2022-11-24T09:54:06.923Z,200.00
2022-11-24T09:55:06.926Z,208.00
2022-11-24T09:56:06.885Z,212.00
2022-11-24T09:57:07.002Z,224.00
2022-11-24T09:58:06.901Z,224.00
2022-11-24T09:59:06.909Z,224.00
2022-11-24T10:00:06.843Z,232.00
2022-11-24T10:01:06.897Z,232.00
2022-11-24T10:02:07.011Z,240.00
2022-11-24T10:03:06.811Z,248.00
2022-11-24T10:04:06.978Z,260.00
2022-11-24T10:05:06.964Z,276.00
2022-11-24T10:06:06.940Z,296.00
2022-11-24T10:07:07.008Z,320.00
2022-11-24T10:08:06.747Z,332.00
2022-11-24T10:09:06.758Z,348.00
2022-11-24T10:10:06.723Z,356.00
2022-11-24T10:11:06.716Z,360.00
2022-11-24T10:12:06.731Z,368.00
2022-11-24T10:13:06.702Z,380.00
2022-11-24T10:14:06.697Z,388.00
2022-11-24T10:15:06.670Z,396.00
2022-11-24T10:16:06.754Z,408.00
2022-11-24T10:17:06.706Z,404.00
2022-11-24T10:18:09.295Z,392.00
2022-11-24T10:19:06.636Z,380.00
2022-11-24T10:20:06.633Z,368.00
2022-11-24T10:21:06.649Z,364.00
2022-11-24T10:22:06.610Z,344.00
2022-11-24T10:23:06.611Z,328.00
2022-11-24T10:24:06.615Z,312.00
2022-11-24T10:25:06.566Z,300.00
2022-11-24T10:26:06.542Z,300.00
2022-11-24T10:27:06.568Z,300.00
2022-11-24T10:28:06.530Z,292.00
2022-11-24T10:29:06.552Z,280.00
2022-11-24T10:30:06.523Z,264.00
2022-11-24T10:31:06.531Z,252.00
2022-11-24T10:32:06.550Z,232.00
2022-11-24T10:33:06.472Z,212.00
2022-11-24T10:34:06.462Z,192.00
2022-11-24T10:35:06.450Z,176.00
2022-11-24T10:36:06.434Z,164.00
2022-11-24T10:37:06.484Z,160.00
2022-11-24T10:38:06.467Z,152.00
2022-11-24T10:39:06.400Z,144.00
2022-11-24T10:40:06.404Z,136.00
2022-11-24T10:41:06.485Z,132.00
2022-11-24T10:42:06.645Z,128.00
2022-11-24T10:43:06.403Z,136.00
2022-11-24T10:44:07.186Z,140.00
2022-11-24T10:45:06.362Z,152.00
2022-11-24T10:46:06.413Z,160.00
2022-11-24T10:47:06.316Z,168.00
2022-11-24T10:48:06.361Z,176.00
2022-11-24T10:49:06.318Z,184.00
2022-11-24T10:50:06.286Z,200.00
2022-11-24T10:51:06.312Z,216.00
2022-11-24T10:52:06.346Z,232.00
2022-11-24T10:53:06.250Z,240.00
2022-11-24T10:54:06.247Z,244.00
2022-11-24T10:55:06.238Z,248.00
2022-11-24T10:56:06.246Z,248.00
2022-11-24T10:57:06.232Z,252.00
2022-11-24T10:58:06.206Z,252.00
2022-11-24T10:59:06.193Z,252.00
2022-11-24T11:00:06.179Z,260.00
2022-11-24T11:01:06.219Z,268.00
2022-11-24T11:02:06.359Z,276.00
2022-11-24T11:03:06.218Z,284.00
2022-11-24T11:04:06.148Z,296.00
2022-11-24T11:05:06.137Z,300.00
2022-11-24T11:06:06.223Z,308.00
2022-11-24T11:07:06.143Z,308.00
2022-11-24T11:08:06.179Z,300.00
2022-11-24T11:09:06.106Z,292.00
2022-11-24T11:10:06.062Z,296.00
2022-11-24T11:11:06.166Z,308.00
2022-11-24T11:12:28.012Z,320.00
2022-11-24T11:13:06.035Z,336.00
2022-11-24T11:14:06.056Z,340.00
2022-11-24T11:15:06.062Z,336.00
2022-11-24T11:16:06.006Z,332.00
2022-11-24T11:17:06.037Z,320.00
2022-11-24T11:18:05.981Z,308.00
2022-11-24T11:19:20.222Z,300.00
2022-11-24T11:20:06.407Z,292.00
2022-11-24T11:21:05.988Z,292.00
2022-11-24T11:22:05.978Z,284.00
2022-11-24T11:23:05.943Z,264.00
2022-11-24T11:24:05.930Z,248.00
2022-11-24T11:25:05.931Z,228.00
2022-11-24T11:26:05.959Z,208.00
2022-11-24T11:27:05.998Z,196.00
2022-11-24T11:28:09.809Z,192.00
2022-11-24T11:31:22.534Z,180.00
2022-11-24T11:34:09.443Z,180.00
2022-11-24T11:35:06.808Z,184.00
2022-11-24T11:36:05.817Z,192.00
2022-11-24T11:37:05.862Z,208.00
2022-11-24T11:38:05.823Z,220.00
2022-11-24T11:39:05.741Z,228.00
2022-11-24T11:40:05.731Z,232.00
2022-11-24T11:41:05.723Z,232.00
2022-11-24T11:42:05.854Z,236.00
2022-11-24T11:43:05.785Z,240.00
2022-11-24T11:44:05.724Z,232.00
2022-11-24T11:45:05.678Z,228.00
2022-11-24T11:46:05.855Z,220.00
2022-11-24T11:47:05.725Z,212.00
2022-11-24T11:48:05.830Z,212.00
2022-11-24T11:49:05.634Z,220.00
2022-11-24T11:50:05.630Z,228.00
2022-11-24T11:52:05.629Z,256.00
2022-11-24T11:53:05.622Z,268.00
2022-11-24T11:54:05.810Z,280.00
2022-11-24T11:55:05.626Z,280.00
2022-11-24T11:56:05.562Z,272.00
2022-11-24T11:57:05.558Z,264.00
2022-11-24T11:58:05.541Z,252.00
2022-11-24T11:59:05.542Z,244.00
2022-11-24T12:00:05.682Z,240.00
2022-11-24T12:01:05.499Z,232.00
2022-11-24T12:02:05.538Z,220.00
2022-11-24T12:03:05.646Z,212.00
2022-11-24T12:04:05.688Z,208.00
2022-11-24T12:05:05.479Z,208.00
2022-11-24T12:06:05.454Z,216.00
2022-11-24T12:07:05.444Z,228.00
2022-11-24T12:08:09.725Z,236.00
2022-11-24T12:09:21.940Z,240.00
2022-11-24T12:10:06.401Z,252.00
2022-11-24T12:11:05.423Z,248.00
2022-11-24T12:12:05.463Z,256.00
2022-11-24T12:13:05.368Z,264.00
2022-11-24T12:14:05.356Z,268.00
2022-11-24T12:15:10.583Z,272.00
2022-11-24T12:16:05.382Z,272.00
2022-11-24T12:17:05.357Z,272.00
2022-11-24T12:18:05.315Z,264.00
2022-11-24T12:19:05.335Z,260.00
2022-11-24T12:20:05.298Z,256.00
2022-11-24T12:21:05.291Z,256.00
2022-11-24T12:22:05.298Z,260.00
2022-11-24T12:23:05.260Z,272.00
2022-11-24T12:24:05.268Z,280.00
2022-11-24T12:25:05.310Z,296.00
2022-11-24T12:26:05.223Z,308.00
2022-11-24T12:27:05.222Z,312.00
2022-11-24T12:28:05.236Z,312.00
2022-11-24T12:29:05.190Z,300.00
2022-11-24T12:30:05.247Z,296.00
2022-11-24T12:31:05.284Z,288.00
2022-11-24T12:32:05.158Z,284.00
2022-11-24T12:33:05.188Z,276.00
2022-11-24T12:34:05.132Z,268.00
2022-11-24T12:35:05.123Z,272.00
2022-11-24T12:36:05.150Z,268.00
2022-11-24T12:37:05.114Z,260.00
2022-11-24T12:38:05.113Z,264.00
2022-11-24T12:39:05.092Z,272.00
2022-11-24T12:40:05.089Z,284.00
2022-11-24T12:41:39.681Z,296.00
2022-11-24T12:42:06.094Z,296.00
2022-11-24T12:43:05.031Z,292.00
2022-11-24T12:44:05.048Z,296.00
2022-11-24T12:45:05.035Z,272.00
2022-11-24T12:46:05.077Z,268.00
2022-11-24T12:47:05.110Z,268.00
2022-11-24T12:48:04.994Z,264.00
2022-11-24T12:49:04.996Z,256.00
2022-11-24T12:50:04.967Z,256.00
2022-11-24T12:51:04.982Z,248.00
2022-11-24T12:52:04.949Z,232.00
2022-11-24T12:53:04.924Z,232.00
2022-11-24T12:54:04.910Z,236.00
2022-11-24T12:55:04.896Z,252.00
2022-11-24T12:56:04.938Z,236.00
2022-11-24T12:57:05.126Z,228.00
2022-11-24T12:58:10.589Z,228.00
2022-11-24T12:59:05.857Z,240.00
2022-11-24T13:00:04.915Z,248.00